createdAt,value
2018-07-26T00:00:59.013Z,20.57
2018-07-26T00:03:27.471Z,20.28
2018-07-26T00:05:56.743Z,20.74
2018-07-26T00:08:25.604Z,20.50
2018-07-26T00:10:54.247Z,20.49
2018-07-26T00:13:22.773Z,20.45
2018-07-26T00:15:51.241Z,20.39
2018-07-26T00:18:19.709Z,20.10
2018-07-26T00:20:48.187Z,19.87
2018-07-26T00:23:16.678Z,19.87
2018-07-26T00:25:45.113Z,20.00
2018-07-26T00:28:13.620Z,19.88
2018-07-26T00:30:42.099Z,19.87
2018-07-26T00:33:10.568Z,19.79
2018-07-26T00:35:39.215Z,19.86
2018-07-26T00:38:07.897Z,19.84
2018-07-26T00:40:36.496Z,19.96
2018-07-26T00:43:05.333Z,19.85
2018-07-26T00:45:33.807Z,19.85
2018-07-26T00:48:02.248Z,20.06
2018-07-26T00:50:30.692Z,20.03
2018-07-26T00:52:59.125Z,20.07
2018-07-26T00:55:27.630Z,20.12
2018-07-26T00:57:56.201Z,20.09
2018-07-26T01:00:24.842Z,20.02
2018-07-26T01:02:53.287Z,19.80
2018-07-26T01:05:21.766Z,19.68
2018-07-26T01:07:50.304Z,19.63
2018-07-26T01:10:19.858Z,19.64
2018-07-26T01:12:48.307Z,19.67
2018-07-26T01:15:16.886Z,19.79
2018-07-26T01:17:45.288Z,19.52
2018-07-26T01:20:14.048Z,19.72
2018-07-26T01:22:42.615Z,19.69
2018-07-26T01:25:11.166Z,19.78
2018-07-26T01:27:39.611Z,19.40
2018-07-26T01:30:08.035Z,19.54
2018-07-26T01:32:36.499Z,19.40
2018-07-26T01:35:04.998Z,19.36
2018-07-26T01:37:33.418Z,19.33
2018-07-26T01:40:02.263Z,19.20
2018-07-26T01:42:35.789Z,19.29
2018-07-26T01:45:04.610Z,19.21
2018-07-26T01:47:34.361Z,19.32
2018-07-26T01:50:03.955Z,19.23
2018-07-26T01:52:32.388Z,19.25
2018-07-26T01:55:00.897Z,19.22
2018-07-26T01:57:29.318Z,19.05
2018-07-26T01:59:57.803Z,19.03
2018-07-26T02:02:26.852Z,19.12
2018-07-26T02:04:55.305Z,18.97
2018-07-26T02:07:23.750Z,19.00
2018-07-26T02:09:52.210Z,18.92
2018-07-26T02:12:20.647Z,18.89
2018-07-26T02:14:49.104Z,18.70
2018-07-26T02:17:19.017Z,18.97
2018-07-26T02:19:47.507Z,18.97
2018-07-26T02:22:16.036Z,18.83
2018-07-26T02:24:44.470Z,18.79
2018-07-26T02:27:12.955Z,18.78
2018-07-26T02:29:41.428Z,18.77
2018-07-26T02:32:10.062Z,18.70
2018-07-26T02:34:38.499Z,18.72
2018-07-26T02:37:07.024Z,18.68
2018-07-26T02:39:35.469Z,18.80
2018-07-26T02:42:03.985Z,18.93
2018-07-26T02:44:32.396Z,18.93
2018-07-26T02:47:00.951Z,18.86
2018-07-26T02:49:29.422Z,18.64
2018-07-26T02:51:57.867Z,18.69
2018-07-26T02:54:26.334Z,18.81
2018-07-26T02:56:54.876Z,18.84
2018-07-26T02:59:23.276Z,18.85
2018-07-26T03:01:51.719Z,18.96
2018-07-26T03:04:20.301Z,19.07
2018-07-26T03:06:48.711Z,19.17
2018-07-26T03:09:17.696Z,19.03
2018-07-26T03:11:46.500Z,19.04
2018-07-26T03:14:15.068Z,18.96
2018-07-26T03:16:43.661Z,18.97
2018-07-26T03:19:12.230Z,18.94
2018-07-26T03:21:40.717Z,19.03
2018-07-26T03:24:09.121Z,19.06
2018-07-26T03:26:37.593Z,19.04
2018-07-26T03:29:06.914Z,18.67
2018-07-26T03:31:35.602Z,18.47
2018-07-26T03:34:04.498Z,18.57
2018-07-26T03:36:33.399Z,18.49
2018-07-26T03:39:01.960Z,18.71
2018-07-26T03:41:30.568Z,18.91
2018-07-26T03:43:59.557Z,18.67
2018-07-26T03:46:28.067Z,18.98
2018-07-26T03:48:56.638Z,19.03
2018-07-26T03:51:25.398Z,18.83
2018-07-26T03:53:54.216Z,18.80
2018-07-26T03:56:22.838Z,18.64
2018-07-26T03:58:51.626Z,19.01
2018-07-26T04:01:20.259Z,18.67
2018-07-26T04:03:48.952Z,18.59
2018-07-26T04:06:17.774Z,18.51
2018-07-26T04:08:46.917Z,18.47
2018-07-26T04:11:15.618Z,18.47
2018-07-26T04:13:44.313Z,18.28
2018-07-26T04:16:12.983Z,18.03
2018-07-26T04:18:42.303Z,18.23
2018-07-26T04:21:13.129Z,18.35
2018-07-26T04:23:42.063Z,18.31
2018-07-26T04:26:11.405Z,18.16
2018-07-26T04:28:40.115Z,18.12
2018-07-26T04:31:09.741Z,18.30
2018-07-26T04:33:38.315Z,18.50
2018-07-26T04:36:06.936Z,18.57
2018-07-26T04:38:35.415Z,18.62
2018-07-26T04:41:04.555Z,18.71
2018-07-26T04:43:33.179Z,18.83
2018-07-26T04:46:01.740Z,19.03
2018-07-26T04:48:30.415Z,19.19
2018-07-26T04:50:59.177Z,19.56
2018-07-26T04:53:27.784Z,19.67
2018-07-26T04:55:56.893Z,19.79
2018-07-26T04:58:25.857Z,19.48
2018-07-26T05:00:55.012Z,19.91
2018-07-26T05:03:23.545Z,20.24
2018-07-26T05:05:52.055Z,20.22
2018-07-26T05:08:20.617Z,20.01
2018-07-26T05:10:49.399Z,20.51
2018-07-26T05:13:18.226Z,19.92
2018-07-26T05:15:46.855Z,20.34
2018-07-26T05:18:15.303Z,20.26
2018-07-26T05:20:43.786Z,20.64
2018-07-26T05:23:12.410Z,21.06
2018-07-26T05:25:40.992Z,20.60
2018-07-26T05:28:09.776Z,20.82
2018-07-26T05:30:38.393Z,20.90
2018-07-26T05:33:06.989Z,20.87
2018-07-26T05:35:35.476Z,21.34
2018-07-26T05:38:03.957Z,21.70
2018-07-26T05:40:32.442Z,21.84
2018-07-26T05:43:00.935Z,21.86
2018-07-26T05:45:30.061Z,21.98
2018-07-26T05:47:58.620Z,21.92
2018-07-26T05:50:27.127Z,21.77
2018-07-26T05:52:55.596Z,22.10
2018-07-26T05:55:25.024Z,21.83
2018-07-26T05:57:53.733Z,22.28
2018-07-26T06:00:22.407Z,22.53
2018-07-26T06:02:51.194Z,22.42
2018-07-26T06:05:19.687Z,22.98
2018-07-26T06:07:48.296Z,23.27
2018-07-26T06:10:16.852Z,23.75
2018-07-26T06:12:45.400Z,24.46
2018-07-26T06:15:13.991Z,25.30
2018-07-26T06:17:42.648Z,24.90
2018-07-26T06:20:12.453Z,26.08
2018-07-26T06:22:41.995Z,25.08
2018-07-26T06:25:10.742Z,25.52
2018-07-26T06:27:39.793Z,25.26
2018-07-26T06:30:11.201Z,25.21
2018-07-26T06:32:39.743Z,25.62
2018-07-26T06:35:09.372Z,25.46
2018-07-26T06:37:38.061Z,25.16
2018-07-26T06:40:06.819Z,25.30
2018-07-26T06:42:35.407Z,24.48
2018-07-26T06:45:03.967Z,26.27
2018-07-26T06:47:32.557Z,26.60
2018-07-26T06:50:01.159Z,26.34
2018-07-26T06:52:29.771Z,27.10
2018-07-26T06:54:58.367Z,26.27
2018-07-26T06:57:27.182Z,26.50
2018-07-26T06:59:56.228Z,26.56
2018-07-26T07:02:24.752Z,27.50
2018-07-26T07:04:54.162Z,27.50
2018-07-26T07:07:22.847Z,27.37
2018-07-26T07:09:51.953Z,27.77
2018-07-26T07:12:20.476Z,27.81
2018-07-26T07:14:49.214Z,27.91
2018-07-26T07:17:17.838Z,27.82
2018-07-26T07:19:46.531Z,28.36
2018-07-26T07:22:15.056Z,28.55
2018-07-26T07:24:43.703Z,28.65
2018-07-26T07:27:12.352Z,29.27
2018-07-26T07:29:40.814Z,28.93
2018-07-26T07:32:09.364Z,29.13
2018-07-26T07:34:37.892Z,29.43
2018-07-26T07:37:06.484Z,29.37
2018-07-26T07:39:34.958Z,29.64
2018-07-26T07:42:03.408Z,29.97
2018-07-26T07:44:33.130Z,30.65
2018-07-26T07:47:03.436Z,31.22
2018-07-26T07:49:32.822Z,30.56
2018-07-26T07:52:02.301Z,30.57
2018-07-26T07:54:32.200Z,31.29
2018-07-26T07:57:01.159Z,30.97
2018-07-26T07:59:31.086Z,31.12
2018-07-26T08:01:59.788Z,32.67
2018-07-26T08:04:29.874Z,33.58
2018-07-26T08:06:58.891Z,33.35
2018-07-26T08:09:27.649Z,33.86
2018-07-26T08:11:56.139Z,34.89
2018-07-26T08:14:25.300Z,35.29
2018-07-26T08:16:53.808Z,34.30
2018-07-26T08:19:22.453Z,35.07
2018-07-26T08:21:51.095Z,35.51
2018-07-26T08:24:22.243Z,36.54
2018-07-26T08:26:51.875Z,36.37
2018-07-26T08:29:21.063Z,35.98
2018-07-26T08:31:49.649Z,36.23
2018-07-26T08:34:18.460Z,36.41
2018-07-26T08:36:47.109Z,36.39
2018-07-26T08:39:15.675Z,35.48
2018-07-26T08:41:44.479Z,36.65
2018-07-26T08:44:13.164Z,37.23
2018-07-26T08:46:41.760Z,37.25
2018-07-26T08:49:10.312Z,37.26
2018-07-26T08:51:38.814Z,37.97
2018-07-26T08:54:08.172Z,37.54
2018-07-26T08:56:36.846Z,36.45
2018-07-26T08:59:05.379Z,37.71
2018-07-26T09:01:33.941Z,37.34
2018-07-26T09:04:02.708Z,36.76
2018-07-26T09:06:31.178Z,37.64
2018-07-26T09:08:59.648Z,37.97
2018-07-26T09:11:28.367Z,37.74
2018-07-26T09:13:56.842Z,38.44
2018-07-26T09:16:25.292Z,39.10
2018-07-26T09:18:54.035Z,39.15
2018-07-26T09:21:22.520Z,39.02
2018-07-26T09:23:51.710Z,38.40
2018-07-26T09:26:20.347Z,38.59
2018-07-26T09:28:49.079Z,37.96
2018-07-26T09:31:17.671Z,39.04
2018-07-26T09:33:46.944Z,38.90
2018-07-26T09:36:16.392Z,38.56
2018-07-26T09:38:44.850Z,39.32
2018-07-26T09:41:14.448Z,38.25
2018-07-26T09:43:43.808Z,37.68
2018-07-26T09:46:12.262Z,37.94
2018-07-26T09:48:42.088Z,38.53
2018-07-26T09:51:10.543Z,38.31
2018-07-26T09:53:39.020Z,38.31
2018-07-26T09:56:08.066Z,39.46
2018-07-26T09:58:36.478Z,37.24
2018-07-26T10:01:10.337Z,37.63
2018-07-26T10:03:38.844Z,37.88
2018-07-26T10:06:07.283Z,38.47
2018-07-26T10:08:35.970Z,39.03
2018-07-26T10:11:04.560Z,36.62
2018-07-26T10:13:32.976Z,34.99
2018-07-26T10:16:01.418Z,37.16
2018-07-26T10:18:29.859Z,36.96
2018-07-26T10:20:58.587Z,38.14
2018-07-26T10:23:27.037Z,38.63
2018-07-26T10:25:56.262Z,38.57
2018-07-26T10:28:24.909Z,38.50
2018-07-26T10:30:53.380Z,38.32
2018-07-26T10:33:22.018Z,37.41
2018-07-26T10:35:50.515Z,37.99
2018-07-26T10:38:19.071Z,37.45
2018-07-26T10:40:47.619Z,37.64
2018-07-26T10:43:16.204Z,39.10
2018-07-26T10:45:44.826Z,38.33
2018-07-26T10:48:13.306Z,38.63
2018-07-26T10:50:41.871Z,39.01
2018-07-26T10:53:10.585Z,39.62
2018-07-26T10:55:39.160Z,38.99
2018-07-26T10:58:08.378Z,38.79
2018-07-26T11:00:36.873Z,39.28
2018-07-26T11:03:06.010Z,39.85
2018-07-26T11:05:34.572Z,38.24
2018-07-26T11:08:03.043Z,38.12
2018-07-26T11:10:31.554Z,38.83
2018-07-26T11:13:00.054Z,38.87
2018-07-26T11:15:30.166Z,38.78
2018-07-26T11:17:59.039Z,39.27
2018-07-26T11:20:27.548Z,39.47
2018-07-26T11:22:56.023Z,39.43
2018-07-26T11:25:24.526Z,38.64
2018-07-26T11:27:53.691Z,39.66
2018-07-26T11:30:22.369Z,38.47
2018-07-26T11:32:50.830Z,38.45
2018-07-26T11:35:19.318Z,39.31
2018-07-26T11:37:47.973Z,39.55
2018-07-26T11:40:16.975Z,40.23
2018-07-26T11:42:45.520Z,39.57
2018-07-26T11:45:14.099Z,38.09
2018-07-26T11:47:42.570Z,37.48
2018-07-26T11:50:13.147Z,39.27
2018-07-26T11:52:41.700Z,40.02
2018-07-26T11:55:10.168Z,37.40
2018-07-26T11:57:38.612Z,38.88
2018-07-26T12:00:08.528Z,37.96
2018-07-26T12:02:37.109Z,38.92
2018-07-26T12:05:05.708Z,38.62
2018-07-26T12:07:34.273Z,37.65
2018-07-26T12:10:02.694Z,38.23
2018-07-26T12:12:31.132Z,35.78
2018-07-26T12:14:59.628Z,36.77
2018-07-26T12:17:28.096Z,38.12
2018-07-26T12:19:57.835Z,38.64
2018-07-26T12:22:26.303Z,38.02
2018-07-26T12:24:54.929Z,38.68
2018-07-26T12:27:23.335Z,37.69
2018-07-26T12:29:51.767Z,38.29
2018-07-26T12:32:20.185Z,36.46
2018-07-26T12:34:48.608Z,38.23
2018-07-26T12:37:17.000Z,38.40
2018-07-26T12:39:46.604Z,38.16
2018-07-26T12:42:15.767Z,38.17
2018-07-26T12:44:44.204Z,37.62
2018-07-26T12:47:12.876Z,38.41
2018-07-26T12:49:41.351Z,38.35
2018-07-26T12:52:10.812Z,38.68
2018-07-26T12:54:40.439Z,37.48
2018-07-26T12:57:08.847Z,38.14
2018-07-26T12:59:37.277Z,37.08
2018-07-26T13:02:05.908Z,35.72
2018-07-26T13:04:34.404Z,36.92
2018-07-26T13:07:02.886Z,38.01
2018-07-26T13:09:31.271Z,37.52
2018-07-26T13:11:59.841Z,38.52
2018-07-26T13:14:28.250Z,37.42
2018-07-26T13:16:56.751Z,38.18
2018-07-26T13:19:25.209Z,38.45
2018-07-26T13:21:54.663Z,39.02
2018-07-26T13:24:23.197Z,39.09
2018-07-26T13:26:51.778Z,37.11
2018-07-26T13:29:20.593Z,36.73
2018-07-26T13:31:49.102Z,37.68
2018-07-26T13:34:17.617Z,38.34
2018-07-26T13:36:46.115Z,38.77
2018-07-26T13:39:14.922Z,37.92
2018-07-26T13:41:43.491Z,37.73
2018-07-26T13:44:11.975Z,37.91
2018-07-26T13:46:40.436Z,38.76
2018-07-26T13:49:08.886Z,38.86
2018-07-26T13:51:37.388Z,38.94
2018-07-26T13:54:06.429Z,37.79
2018-07-26T13:56:35.022Z,37.39
2018-07-26T13:59:04.416Z,38.17
2018-07-26T14:01:33.137Z,37.82
2018-07-26T14:04:01.771Z,38.15
2018-07-26T14:06:30.431Z,37.95
2018-07-26T14:08:58.898Z,38.00
2018-07-26T14:11:27.513Z,37.94
2018-07-26T14:13:56.018Z,37.75
2018-07-26T14:16:25.301Z,36.38
2018-07-26T14:18:54.207Z,35.64
2018-07-26T14:21:22.723Z,36.08
2018-07-26T14:23:56.508Z,36.51
2018-07-26T14:26:24.997Z,36.45
2018-07-26T14:28:54.071Z,36.27
2018-07-26T14:31:22.690Z,36.26
2018-07-26T14:33:51.136Z,35.63
2018-07-26T14:36:19.597Z,35.32
2018-07-26T14:38:48.143Z,35.05
2018-07-26T14:41:16.664Z,36.07
2018-07-26T14:43:45.148Z,36.28
2018-07-26T14:46:13.557Z,36.11
2018-07-26T14:48:41.990Z,35.88
2018-07-26T14:51:10.501Z,36.04
2018-07-26T14:53:38.952Z,35.92
2018-07-26T14:56:07.573Z,35.35
2018-07-26T14:58:37.142Z,35.30
2018-07-26T15:01:06.273Z,35.49
2018-07-26T15:03:34.932Z,35.41
2018-07-26T15:06:03.697Z,35.32
2018-07-26T15:08:33.051Z,35.45
2018-07-26T15:11:01.505Z,35.35
2018-07-26T15:13:30.160Z,34.87
2018-07-26T15:15:58.984Z,35.06
2018-07-26T15:18:27.500Z,35.06
2018-07-26T15:20:55.942Z,35.04
2018-07-26T15:23:24.387Z,34.66
2018-07-26T15:25:53.380Z,34.71
2018-07-26T15:28:21.780Z,34.96
2018-07-26T15:30:50.212Z,34.77
2018-07-26T15:33:18.624Z,35.01
2018-07-26T15:35:47.066Z,35.09
2018-07-26T15:38:15.502Z,35.03
2018-07-26T15:40:43.919Z,34.99
2018-07-26T15:43:12.366Z,34.69
2018-07-26T15:45:40.795Z,34.62
2018-07-26T15:48:09.237Z,34.70
2018-07-26T15:50:37.633Z,34.55
2018-07-26T15:53:06.602Z,34.57
2018-07-26T15:55:35.073Z,34.54
2018-07-26T15:58:03.484Z,34.41
2018-07-26T16:00:31.885Z,34.64
2018-07-26T16:03:00.425Z,34.60
2018-07-26T16:05:28.844Z,34.60
2018-07-26T16:07:57.563Z,34.60
2018-07-26T16:10:26.917Z,34.44
2018-07-26T16:12:55.347Z,34.37
2018-07-26T16:15:23.774Z,34.16
2018-07-26T16:17:52.314Z,34.16
2018-07-26T16:20:20.660Z,34.14
2018-07-26T16:22:49.151Z,34.04
2018-07-26T16:25:17.644Z,34.01
2018-07-26T16:27:46.073Z,34.14
2018-07-26T16:30:14.511Z,33.95
2018-07-26T16:32:42.951Z,34.02
2018-07-26T16:35:11.384Z,34.17
2018-07-26T16:37:39.831Z,33.80
2018-07-26T16:40:08.311Z,34.00
2018-07-26T16:42:36.755Z,34.02
2018-07-26T16:45:06.377Z,33.94
2018-07-26T16:47:34.860Z,33.86
2018-07-26T16:50:03.763Z,34.01
2018-07-26T16:52:32.260Z,34.00
2018-07-26T16:55:00.792Z,33.85
2018-07-26T16:57:29.358Z,33.96
2018-07-26T16:59:57.791Z,33.80
2018-07-26T17:02:27.117Z,33.86
2018-07-26T17:04:55.575Z,33.86
2018-07-26T17:07:24.127Z,33.72
2018-07-26T17:09:52.547Z,33.73
2018-07-26T17:12:21.022Z,33.81
2018-07-26T17:14:49.433Z,33.73
2018-07-26T17:17:17.896Z,33.55
2018-07-26T17:19:46.311Z,33.68
2018-07-26T17:22:14.758Z,33.48
2018-07-26T17:24:43.289Z,33.52
2018-07-26T17:27:11.708Z,33.49
2018-07-26T17:29:40.147Z,33.50
2018-07-26T17:32:08.660Z,33.42
2018-07-26T17:34:37.221Z,33.33
2018-07-26T17:37:05.799Z,33.32
2018-07-26T17:39:34.265Z,33.06
2018-07-26T17:42:04.128Z,33.06
2018-07-26T17:44:33.330Z,33.14
2018-07-26T17:47:01.844Z,33.14
2018-07-26T17:49:31.137Z,32.97
2018-07-26T17:52:04.267Z,32.90
2018-07-26T17:54:32.927Z,32.70
2018-07-26T17:57:01.428Z,32.64
2018-07-26T17:59:31.134Z,32.71
2018-07-26T18:02:00.725Z,32.67
2018-07-26T18:04:30.029Z,32.63
2018-07-26T18:06:59.739Z,32.60
2018-07-26T18:09:28.216Z,32.39
2018-07-26T18:11:57.073Z,32.22
2018-07-26T18:14:25.664Z,32.14
2018-07-26T18:16:54.282Z,32.08
2018-07-26T18:19:23.155Z,32.00
2018-07-26T18:21:51.968Z,31.51
2018-07-26T18:24:20.891Z,31.15
2018-07-26T18:26:50.106Z,31.05
2018-07-26T18:29:19.792Z,30.78
2018-07-26T18:31:48.778Z,30.48
2018-07-26T18:34:17.780Z,30.33
2018-07-26T18:36:46.677Z,30.05
2018-07-26T18:39:15.744Z,29.66
2018-07-26T18:41:44.473Z,29.49
2018-07-26T18:44:25.281Z,29.23
2018-07-26T18:46:54.427Z,29.28
2018-07-26T18:49:24.575Z,29.24
2018-07-26T18:51:53.749Z,29.14
2018-07-26T18:54:22.480Z,28.98
2018-07-26T18:56:52.331Z,29.01
2018-07-26T18:59:22.236Z,28.98
2018-07-26T19:01:50.933Z,28.65
2018-07-26T19:04:19.667Z,28.47
2018-07-26T19:06:48.775Z,27.97
2018-07-26T19:09:17.463Z,28.11
2018-07-26T19:11:46.209Z,27.95
2018-07-26T19:14:14.978Z,27.94
2018-07-26T19:16:44.203Z,27.79
2018-07-26T19:19:12.997Z,27.80
2018-07-26T19:21:42.373Z,27.91
2018-07-26T19:24:10.950Z,27.61
2018-07-26T19:26:39.547Z,27.31
2018-07-26T19:29:08.147Z,26.89
2018-07-26T19:31:37.457Z,26.92
2018-07-26T19:34:06.980Z,26.54
2018-07-26T19:36:35.576Z,26.31
2018-07-26T19:39:07.283Z,26.40
2018-07-26T19:41:36.066Z,26.37
2018-07-26T19:44:05.070Z,26.35
2018-07-26T19:46:34.028Z,25.61
2018-07-26T19:49:03.313Z,26.14
2018-07-26T19:51:32.689Z,25.80
2018-07-26T19:54:01.984Z,25.84
2018-07-26T19:56:30.411Z,26.03
2018-07-26T19:58:59.263Z,26.08
2018-07-26T20:01:27.688Z,26.13
2018-07-26T20:03:56.345Z,25.86
2018-07-26T20:06:24.873Z,25.80
2018-07-26T20:08:53.681Z,25.74
2018-07-26T20:11:22.848Z,25.70
2018-07-26T20:13:51.387Z,25.57
2018-07-26T20:16:19.790Z,25.87
2018-07-26T20:18:48.408Z,25.82
2018-07-26T20:21:17.165Z,25.64
2018-07-26T20:23:47.307Z,25.56
2018-07-26T20:26:16.069Z,25.44
2018-07-26T20:28:44.670Z,25.48
2018-07-26T20:31:13.102Z,25.41
2018-07-26T20:33:41.639Z,25.06
2018-07-26T20:36:10.243Z,24.79
2018-07-26T20:38:39.213Z,24.98
2018-07-26T20:41:07.764Z,25.01
2018-07-26T20:43:36.189Z,24.97
2018-07-26T20:46:04.818Z,24.83
2018-07-26T20:48:33.422Z,24.79
2018-07-26T20:51:01.848Z,24.67
2018-07-26T20:53:30.523Z,24.76
2018-07-26T20:55:59.255Z,24.64
2018-07-26T20:58:28.446Z,24.38
2018-07-26T21:00:57.661Z,24.21
2018-07-26T21:03:26.595Z,24.25
2018-07-26T21:05:56.142Z,24.10
2018-07-26T21:08:25.090Z,24.06
2018-07-26T21:10:53.694Z,23.99
2018-07-26T21:13:22.142Z,23.91
2018-07-26T21:15:50.593Z,24.04
2018-07-26T21:18:19.628Z,23.91
2018-07-26T21:20:48.077Z,23.95
2018-07-26T21:23:16.842Z,24.01
2018-07-26T21:25:46.897Z,23.98
2018-07-26T21:28:15.612Z,23.77
2018-07-26T21:30:44.237Z,23.61
2018-07-26T21:33:13.128Z,23.83
2018-07-26T21:35:41.644Z,23.83
2018-07-26T21:38:11.369Z,23.70
2018-07-26T21:40:39.936Z,23.66
2018-07-26T21:43:11.216Z,23.62
2018-07-26T21:45:39.933Z,23.53
2018-07-26T21:48:08.642Z,23.48
2018-07-26T21:50:37.416Z,23.51
2018-07-26T21:53:06.320Z,23.40
2018-07-26T21:55:34.742Z,23.17
2018-07-26T21:58:03.385Z,23.16
2018-07-26T22:00:39.919Z,22.86
2018-07-26T22:03:09.111Z,22.83
2018-07-26T22:05:38.308Z,22.76
2018-07-26T22:08:07.746Z,22.67
2018-07-26T22:10:36.173Z,22.75
2018-07-26T22:13:04.577Z,22.72
2018-07-26T22:15:33.127Z,22.61
2018-07-26T22:18:01.526Z,22.59
2018-07-26T22:20:30.779Z,22.57
2018-07-26T22:22:59.289Z,22.51
2018-07-26T22:25:27.723Z,22.56
2018-07-26T22:27:56.526Z,22.37
2018-07-26T22:30:25.216Z,22.18
2018-07-26T22:32:54.268Z,22.22
2018-07-26T22:35:22.975Z,22.14
2018-07-26T22:37:51.579Z,22.09
2018-07-26T22:40:20.631Z,22.01
2018-07-26T22:42:49.210Z,22.05
2018-07-26T22:45:18.274Z,22.05
2018-07-26T22:47:47.539Z,22.12
2018-07-26T22:50:16.631Z,21.96
2018-07-26T22:52:45.700Z,22.05
2018-07-26T22:55:14.217Z,22.23
2018-07-26T22:57:42.652Z,22.20
2018-07-26T23:00:11.172Z,21.95
2018-07-26T23:02:39.736Z,21.89
2018-07-26T23:05:08.708Z,21.82
2018-07-26T23:07:38.068Z,21.96
2018-07-26T23:10:08.563Z,22.08
2018-07-26T23:12:37.385Z,21.79
2018-07-26T23:15:07.355Z,21.55
2018-07-26T23:17:35.877Z,21.58
2018-07-26T23:20:05.623Z,21.34
2018-07-26T23:22:34.242Z,21.42
2018-07-26T23:25:02.786Z,21.33
2018-07-26T23:27:31.610Z,21.42
2018-07-26T23:30:00.133Z,21.41
2018-07-26T23:32:29.052Z,21.26
2018-07-26T23:34:57.937Z,21.23
2018-07-26T23:37:26.983Z,21.25
2018-07-26T23:39:56.628Z,21.41
2018-07-26T23:42:26.575Z,21.39
2018-07-26T23:44:56.229Z,21.28
2018-07-26T23:47:25.249Z,21.21
2018-07-26T23:49:53.710Z,21.29
2018-07-26T23:52:22.770Z,21.23
2018-07-26T23:54:51.315Z,21.36
2018-07-26T23:57:19.719Z,21.14
2018-07-26T23:59:48.259Z,21.23
